Time;durP1;ratioP1;P1;durP2;ratioP2;P2;SDS_P1;SDS_P2;PMS_P1;PMS_P2;Temp;Humidity;BMP_temperature;BMP_pressure;BME280_temperature;BME280_humidity;BME280_pressure;Samples;Min_cycle;Max_cycle;Signal;HPM_P1;HPM_P2
2022/01/03 00:02:17;;;;;;;;;;;11.40;99.90;;;;;;5094058;28;19908;-50
2022/01/03 00:04:42;;;;;;;;;;;11.30;99.90;;;;;;5094086;28;20272;-45
2022/01/03 00:07:09;;;;;;;;;;;11.30;99.90;;;;;;5075534;28;20373;-48
2022/01/03 00:09:35;;;;;;;;;;;11.20;99.90;;;;;;5093652;28;19915;-46
2022/01/03 00:12:01;;;;;;;;;;;11.30;99.90;;;;;;5075631;28;19912;-47
2022/01/03 00:14:27;;;;;;;;;;;11.20;99.90;;;;;;5093476;28;20003;-48
2022/01/03 00:16:52;;;;;;;;;;;11.20;99.90;;;;;;5075792;28;19908;-46
2022/01/03 00:19:18;;;;;;;;;;;11.20;99.90;;;;;;5094000;28;19908;-52
2022/01/03 00:21:44;;;;;;;;;;;11.20;99.90;;;;;;5093952;28;19916;-45
2022/01/03 00:24:10;;;;;;;;;;;11.10;99.90;;;;;;5093939;28;19908;-47
2022/01/03 00:26:37;;;;;;;;;;;11.10;99.90;;;;;;5075751;28;19916;-50
2022/01/03 00:29:22;;;;;;;;;;;11.10;99.90;;;;;;5075866;28;19908;-47
2022/01/03 00:31:47;;;;;;;;;;;11.10;99.90;;;;;;5094019;28;19928;-46
2022/01/03 00:34:14;;;;;;;;;;;11.10;99.90;;;;;;5096407;28;19917;-48
2022/01/03 00:36:40;;;;;;;;;;;11.10;99.90;;;;;;5079118;28;19916;-48
2022/01/03 00:39:07;;;;;;;;;;;11.10;99.90;;;;;;5097202;28;19908;-45
2022/01/03 00:41:36;;;;;;;;;;;11.10;99.90;;;;;;5097514;28;19915;-49
2022/01/03 00:44:01;;;;;;;;;;;11.10;99.90;;;;;;5097709;28;19957;-47
2022/01/03 00:46:29;;;;;;;;;;;11.10;99.90;;;;;;5079151;28;20247;-48
2022/01/03 00:48:54;;;;;;;;;;;11.00;99.90;;;;;;5079262;28;19915;-47
2022/01/03 00:51:20;;;;;;;;;;;11.00;99.90;;;;;;5097242;28;19908;-47
2022/01/03 00:53:46;;;;;;;;;;;11.10;99.90;;;;;;5097301;28;20354;-48
2022/01/03 00:56:18;;;;;;;;;;;11.00;99.90;;;;;;5097130;28;19915;-46
2022/01/03 00:58:52;;;;;;;;;;;11.00;99.90;;;;;;5097186;28;19923;-45
2022/01/03 01:01:18;;;;;;;;;;;11.00;99.90;;;;;;5097099;28;19908;-44
2022/01/03 01:03:45;;;;;;;;;;;11.00;99.90;;;;;;5096983;28;20433;-46
2022/01/03 01:06:11;;;;;;;;;;;10.90;99.90;;;;;;5096616;28;20278;-45
2022/01/03 01:08:37;;;;;;;;;;;10.90;99.90;;;;;;5096894;28;19922;-46
2022/01/03 01:11:04;;;;;;;;;;;11.00;99.90;;;;;;5096629;28;19958;-44
2022/01/03 01:13:30;;;;;;;;;;;10.90;99.90;;;;;;5097289;28;19908;-46
2022/01/03 01:15:55;;;;;;;;;;;10.90;99.90;;;;;;5096826;28;19915;-45
2022/01/03 01:18:23;;;;;;;;;;;10.90;99.90;;;;;;5096600;28;19913;-45
2022/01/03 01:20:48;;;;;;;;;;;10.90;99.90;;;;;;5096770;28;20007;-48
2022/01/03 01:23:14;;;;;;;;;;;10.80;99.90;;;;;;5096807;28;20392;-47
2022/01/03 01:28:09;;;;;;;;;;;10.80;99.90;;;;;;5096669;28;19908;-47
2022/01/03 01:30:35;;;;;;;;;;;10.80;99.90;;;;;;5096372;28;19923;-45
2022/01/03 01:33:02;;;;;;;;;;;10.80;99.90;;;;;;5096553;28;20077;-50
2022/01/03 01:35:34;;;;;;;;;;;10.80;99.90;;;;;;5096328;28;19984;-50
2022/01/03 01:38:01;;;;;;;;;;;10.70;99.90;;;;;;5096067;28;19992;-48
2022/01/03 01:40:27;;;;;;;;;;;10.80;99.90;;;;;;5096389;28;19932;-47
2022/01/03 01:42:54;;;;;;;;;;;10.80;99.90;;;;;;5096415;28;20277;-47
2022/01/03 01:45:22;;;;;;;;;;;10.90;99.90;;;;;;5096301;28;19947;-47
2022/01/03 01:47:48;;;;;;;;;;;10.80;99.90;;;;;;5096004;28;20321;-50
2022/01/03 01:50:14;;;;;;;;;;;10.80;99.90;;;;;;5095932;28;19936;-46
2022/01/03 01:52:39;;;;;;;;;;;10.80;99.90;;;;;;5096121;28;19943;-47
2022/01/03 01:55:09;;;;;;;;;;;10.80;99.90;;;;;;5095852;28;19908;-45
2022/01/03 01:57:39;;;;;;;;;;;10.80;99.90;;;;;;5096064;28;20284;-46
2022/01/03 02:00:08;;;;;;;;;;;10.80;99.90;;;;;;5096115;28;19908;-47
2022/01/03 02:02:36;;;;;;;;;;;10.90;99.90;;;;;;5095950;28;19912;-46
2022/01/03 02:05:12;;;;;;;;;;;10.80;99.90;;;;;;5095895;28;19989;-47
2022/01/03 02:07:41;;;;;;;;;;;10.80;99.90;;;;;;5077733;28;19920;-46
2022/01/03 02:10:08;;;;;;;;;;;10.80;99.90;;;;;;5095554;28;19915;-46
2022/01/03 02:12:41;;;;;;;;;;;10.90;99.90;;;;;;5077647;28;19908;-49
2022/01/03 02:15:11;;;;;;;;;;;10.80;99.90;;;;;;5095458;28;19908;-45
2022/01/03 02:17:37;;;;;;;;;;;10.80;99.90;;;;;;5095934;28;19915;-49
2022/01/03 02:20:05;;;;;;;;;;;10.80;99.90;;;;;;5095319;28;19908;-45
2022/01/03 02:22:31;;;;;;;;;;;10.80;99.90;;;;;;5095304;28;20069;-45
2022/01/03 02:24:56;;;;;;;;;;;10.80;99.90;;;;;;5095516;28;19915;-47
2022/01/03 02:27:22;;;;;;;;;;;10.80;99.90;;;;;;5095459;28;20268;-48
2022/01/03 02:29:47;;;;;;;;;;;10.80;99.90;;;;;;5095499;28;20366;-47
2022/01/03 02:32:13;;;;;;;;;;;10.70;99.90;;;;;;5077296;28;19973;-49
2022/01/03 02:34:38;;;;;;;;;;;10.70;99.90;;;;;;5094972;28;20415;-47
2022/01/03 02:37:04;;;;;;;;;;;10.70;99.90;;;;;;5095060;28;19935;-48
2022/01/03 02:39:30;;;;;;;;;;;10.70;99.90;;;;;;5094933;28;19962;-49
2022/01/03 02:41:55;;;;;;;;;;;10.70;99.90;;;;;;5094954;28;20272;-48
2022/01/03 02:44:21;;;;;;;;;;;10.70;99.90;;;;;;5095503;28;19912;-50
2022/01/03 02:46:46;;;;;;;;;;;10.70;99.90;;;;;;5095057;28;19922;-47
2022/01/03 02:49:12;;;;;;;;;;;10.70;99.90;;;;;;5094787;28;20366;-46
2022/01/03 02:51:37;;;;;;;;;;;10.80;99.90;;;;;;5094671;28;19916;-46
2022/01/03 02:54:03;;;;;;;;;;;10.70;99.90;;;;;;5094753;28;19916;-47
2022/01/03 02:56:33;;;;;;;;;;;10.70;99.90;;;;;;5094148;28;19931;-46
2022/01/03 02:58:59;;;;;;;;;;;10.80;99.90;;;;;;5094891;28;20006;-47
2022/01/03 03:01:24;;;;;;;;;;;10.70;99.90;;;;;;5094594;28;19940;-47
2022/01/03 03:03:50;;;;;;;;;;;10.80;99.90;;;;;;5094624;28;19916;-50
2022/01/03 03:06:16;;;;;;;;;;;10.80;99.90;;;;;;5094319;28;19916;-46
2022/01/03 03:08:42;;;;;;;;;;;10.80;99.90;;;;;;5076603;28;19955;-48
2022/01/03 03:11:07;;;;;;;;;;;10.80;99.90;;;;;;5094710;28;19908;-45
2022/01/03 03:13:33;;;;;;;;;;;10.80;99.90;;;;;;5094398;28;20368;-46
2022/01/03 03:15:59;;;;;;;;;;;10.70;99.90;;;;;;5094938;28;19908;-46
2022/01/03 03:18:24;;;;;;;;;;;10.70;99.90;;;;;;5094325;28;19915;-45
2022/01/03 03:20:50;;;;;;;;;;;10.70;99.90;;;;;;5094596;28;19908;-45
2022/01/03 03:23:15;;;;;;;;;;;10.70;99.90;;;;;;5094760;28;19908;-45
2022/01/03 03:25:41;;;;;;;;;;;10.70;99.90;;;;;;5094400;28;19926;-45
2022/01/03 03:28:08;;;;;;;;;;;10.70;99.90;;;;;;5094356;28;19908;-45
2022/01/03 03:30:44;;;;;;;;;;;10.70;99.90;;;;;;5094113;28;20304;-44
2022/01/03 03:33:17;;;;;;;;;;;10.70;99.90;;;;;;5094033;28;19970;-45
2022/01/03 03:35:43;;;;;;;;;;;10.70;99.90;;;;;;5093848;28;19939;-45
2022/01/03 03:38:09;;;;;;;;;;;10.70;99.90;;;;;;5075880;28;19998;-46
2022/01/03 03:40:35;;;;;;;;;;;10.70;99.90;;;;;;5093715;28;20004;-48
2022/01/03 03:43:01;;;;;;;;;;;10.70;99.90;;;;;;5093895;28;19908;-47
2022/01/03 03:45:26;;;;;;;;;;;10.70;99.90;;;;;;5093842;28;19915;-47
2022/01/03 03:47:52;;;;;;;;;;;10.70;99.90;;;;;;5093722;28;19923;-49
2022/01/03 03:50:19;;;;;;;;;;;10.70;99.90;;;;;;5093618;28;20385;-47
2022/01/03 03:52:44;;;;;;;;;;;10.70;99.90;;;;;;5093549;28;19961;-46
2022/01/03 03:55:10;;;;;;;;;;;10.70;99.90;;;;;;5093395;28;19908;-48
2022/01/03 03:57:36;;;;;;;;;;;10.70;99.90;;;;;;5093778;28;19969;-54
2022/01/03 04:00:03;;;;;;;;;;;10.70;99.90;;;;;;5093414;28;19912;-46
2022/01/03 04:02:28;;;;;;;;;;;10.70;99.90;;;;;;5093855;28;19908;-47
2022/01/03 04:04:54;;;;;;;;;;;10.60;99.90;;;;;;5093631;28;20301;-48
2022/01/03 04:07:19;;;;;;;;;;;10.70;99.90;;;;;;5093692;28;20366;-46
2022/01/03 04:09:45;;;;;;;;;;;10.70;99.90;;;;;;5097644;28;20010;-45
2022/01/03 04:12:10;;;;;;;;;;;10.70;99.90;;;;;;5097697;28;20385;-45
2022/01/03 04:14:36;;;;;;;;;;;10.70;99.90;;;;;;5097442;28;19908;-48
2022/01/03 04:17:01;;;;;;;;;;;10.70;99.90;;;;;;5097604;28;19912;-46
2022/01/03 04:19:27;;;;;;;;;;;10.70;99.90;;;;;;5097661;28;19908;-45
2022/01/03 04:21:52;;;;;;;;;;;10.70;99.90;;;;;;5097612;28;19908;-45
2022/01/03 04:24:18;;;;;;;;;;;10.70;99.90;;;;;;5097484;28;19912;-48
2022/01/03 04:26:45;;;;;;;;;;;10.70;99.90;;;;;;5096012;28;20405;-46
2022/01/03 04:29:10;;;;;;;;;;;10.70;99.90;;;;;;5097100;28;19998;-45
2022/01/03 04:31:36;;;;;;;;;;;10.70;99.90;;;;;;5097323;28;19967;-47
2022/01/03 04:34:02;;;;;;;;;;;10.70;99.90;;;;;;5078546;28;20419;-47
2022/01/03 04:36:28;;;;;;;;;;;10.70;99.90;;;;;;5096983;28;19919;-45
2022/01/03 04:38:53;;;;;;;;;;;10.70;99.90;;;;;;5096914;28;19999;-47
2022/01/03 04:41:19;;;;;;;;;;;10.70;99.90;;;;;;5096823;28;19919;-44
2022/01/03 04:43:44;;;;;;;;;;;10.70;99.90;;;;;;5096745;28;19908;-50
2022/01/03 04:46:10;;;;;;;;;;;10.60;99.90;;;;;;5096504;28;20435;-47
2022/01/03 04:48:37;;;;;;;;;;;10.60;99.90;;;;;;5096752;28;19908;-44
2022/01/03 04:51:03;;;;;;;;;;;10.60;99.90;;;;;;5097021;28;20003;-47
2022/01/03 04:53:28;;;;;;;;;;;10.60;99.90;;;;;;5077023;28;20326;-46
2022/01/03 04:55:54;;;;;;;;;;;10.60;99.90;;;;;;5076617;28;20353;-45
2022/01/03 04:58:19;;;;;;;;;;;10.70;99.90;;;;;;5076674;28;20317;-48
2022/01/03 05:00:45;;;;;;;;;;;10.70;99.90;;;;;;5076544;28;19912;-47
2022/01/03 05:03:11;;;;;;;;;;;10.60;99.90;;;;;;5091127;28;20061;-45
2022/01/03 05:05:36;;;;;;;;;;;10.70;99.90;;;;;;5092839;28;19918;-48
2022/01/03 05:08:02;;;;;;;;;;;10.60;99.90;;;;;;5094183;28;20034;-49
2022/01/03 05:10:27;;;;;;;;;;;10.60;99.90;;;;;;5095318;28;19916;-45
2022/01/03 05:12:53;;;;;;;;;;;10.60;99.90;;;;;;5095043;28;19908;-47
2022/01/03 05:15:18;;;;;;;;;;;10.60;99.90;;;;;;5095063;28;20354;-47
2022/01/03 05:17:44;;;;;;;;;;;10.60;99.90;;;;;;5095034;28;19909;-46
2022/01/03 05:20:10;;;;;;;;;;;10.60;99.90;;;;;;5094660;28;20281;-46
2022/01/03 05:22:35;;;;;;;;;;;10.60;99.90;;;;;;5094403;28;19936;-45
2022/01/03 05:25:01;;;;;;;;;;;10.60;99.90;;;;;;5092892;28;19988;-48
2022/01/03 05:27:26;;;;;;;;;;;10.60;99.90;;;;;;5094583;28;19962;-46
2022/01/03 05:29:52;;;;;;;;;;;10.60;99.90;;;;;;5093181;28;20319;-45
2022/01/03 05:32:17;;;;;;;;;;;10.60;99.90;;;;;;5094469;28;19916;-47
2022/01/03 05:34:43;;;;;;;;;;;10.60;99.90;;;;;;5093079;28;20289;-48
2022/01/03 05:37:09;;;;;;;;;;;10.60;99.90;;;;;;5094660;28;20314;-49
2022/01/03 05:39:34;;;;;;;;;;;10.50;99.90;;;;;;5092695;28;19908;-44
2022/01/03 05:42:00;;;;;;;;;;;10.50;99.90;;;;;;5094473;28;19909;-45
2022/01/03 05:44:26;;;;;;;;;;;10.60;99.90;;;;;;5094478;28;19912;-50
2022/01/03 05:46:51;;;;;;;;;;;10.50;99.90;;;;;;5094118;28;20398;-45
2022/01/03 05:49:17;;;;;;;;;;;10.50;99.90;;;;;;5094246;28;19908;-46
2022/01/03 05:51:42;;;;;;;;;;;10.50;99.90;;;;;;5093692;28;20349;-48
2022/01/03 05:54:08;;;;;;;;;;;10.50;99.90;;;;;;5094237;28;19919;-48
2022/01/03 05:56:33;;;;;;;;;;;10.50;99.90;;;;;;5093930;28;19912;-50
2022/01/03 05:58:59;;;;;;;;;;;10.50;99.90;;;;;;5093840;28;19909;-48
2022/01/03 06:01:25;;;;;;;;;;;10.50;99.90;;;;;;5094090;28;20270;-45
2022/01/03 06:04:11;;;;;;;;;;;10.50;99.90;;;;;;5094129;28;19912;-47
2022/01/03 06:06:54;;;;;;;;;;;10.50;99.90;;;;;;5093847;28;19921;-46
2022/01/03 06:09:20;;;;;;;;;;;10.50;99.90;;;;;;5094282;28;20003;-50
2022/01/03 06:11:46;;;;;;;;;;;10.40;99.90;;;;;;5094913;28;19947;-48
2022/01/03 06:14:14;;;;;;;;;;;10.40;99.90;;;;;;5074991;28;20334;-47
2022/01/03 06:16:40;;;;;;;;;;;10.50;99.90;;;;;;5078299;28;19912;-45
2022/01/03 06:19:05;;;;;;;;;;;10.50;99.90;;;;;;5094903;28;20357;-45
2022/01/03 06:21:31;;;;;;;;;;;10.40;99.90;;;;;;5094321;28;20010;-48
2022/01/03 06:23:57;;;;;;;;;;;10.40;99.90;;;;;;5094526;28;19912;-48
2022/01/03 06:26:22;;;;;;;;;;;10.40;99.90;;;;;;5094289;28;19951;-45
2022/01/03 06:28:48;;;;;;;;;;;10.40;99.90;;;;;;5094939;28;19930;-47
2022/01/03 06:31:13;;;;;;;;;;;10.40;99.90;;;;;;5093375;28;20325;-45
2022/01/03 06:33:40;;;;;;;;;;;10.40;99.90;;;;;;5083629;28;19957;-47
2022/01/03 06:36:06;;;;;;;;;;;10.40;99.90;;;;;;5094311;28;19912;-48
2022/01/03 06:38:31;;;;;;;;;;;10.30;99.90;;;;;;5076606;28;20021;-46
2022/01/03 06:40:57;;;;;;;;;;;10.30;99.90;;;;;;5094518;28;19941;-50
2022/01/03 06:43:22;;;;;;;;;;;10.30;99.90;;;;;;5094533;28;19912;-46
2022/01/03 06:45:48;;;;;;;;;;;10.40;99.90;;;;;;5094027;28;19912;-46
2022/01/03 06:48:13;;;;;;;;;;;10.30;99.90;;;;;;5093857;28;19912;-46
2022/01/03 06:50:39;;;;;;;;;;;10.30;99.90;;;;;;5076083;28;19916;-45
2022/01/03 06:53:04;;;;;;;;;;;10.30;99.90;;;;;;5074483;28;19955;-47
2022/01/03 06:55:30;;;;;;;;;;;10.30;99.90;;;;;;5076405;28;20250;-47
2022/01/03 06:57:55;;;;;;;;;;;10.30;99.90;;;;;;5077150;28;20006;-48
2022/01/03 07:00:21;;;;;;;;;;;10.20;99.90;;;;;;5093648;28;19923;-53
2022/01/03 07:02:46;;;;;;;;;;;10.20;99.90;;;;;;5094554;28;19914;-50
2022/01/03 07:05:13;;;;;;;;;;;10.20;99.90;;;;;;5094028;28;20334;-51
2022/01/03 07:07:39;;;;;;;;;;;10.30;99.90;;;;;;5090949;28;20365;-46
2022/01/03 07:10:04;;;;;;;;;;;10.30;99.90;;;;;;5093166;28;19908;-51
2022/01/03 07:12:30;;;;;;;;;;;10.20;99.90;;;;;;5086221;28;19919;-51
2022/01/03 07:20:09;;;;;;;;;;;10.20;99.90;;;;;;5093404;28;19971;-49
2022/01/03 07:22:39;;;;;;;;;;;10.20;99.90;;;;;;5093227;28;19920;-56
2022/01/03 07:25:05;;;;;;;;;;;10.20;99.90;;;;;;5088877;28;19912;-54
2022/01/03 07:27:31;;;;;;;;;;;10.20;99.90;;;;;;5093302;28;19916;-51
2022/01/03 07:29:56;;;;;;;;;;;10.20;99.90;;;;;;5085908;28;19995;-52
2022/01/03 07:32:22;;;;;;;;;;;10.20;99.90;;;;;;5073076;28;19909;-50
2022/01/03 07:34:47;;;;;;;;;;;10.20;99.90;;;;;;5073366;28;19913;-45
2022/01/03 07:37:13;;;;;;;;;;;10.20;99.90;;;;;;5073288;28;19908;-45
2022/01/03 07:39:38;;;;;;;;;;;10.20;99.90;;;;;;5073357;28;19909;-45
2022/01/03 07:42:04;;;;;;;;;;;10.30;99.90;;;;;;5079563;28;19959;-48
2022/01/03 07:44:30;;;;;;;;;;;10.20;99.90;;;;;;5093248;28;19908;-46
2022/01/03 07:46:55;;;;;;;;;;;10.30;99.90;;;;;;5093747;28;19963;-43
2022/01/03 07:49:21;;;;;;;;;;;10.30;99.90;;;;;;5093031;28;20032;-42
2022/01/03 07:51:47;;;;;;;;;;;10.30;99.90;;;;;;5093432;28;19912;-47
2022/01/03 07:54:13;;;;;;;;;;;10.30;99.90;;;;;;5092845;28;20049;-46
2022/01/03 07:56:38;;;;;;;;;;;10.30;99.90;;;;;;5088730;28;19913;-45
2022/01/03 07:59:05;;;;;;;;;;;10.30;99.90;;;;;;5092533;28;20403;-48
2022/01/03 08:01:31;;;;;;;;;;;10.30;99.90;;;;;;5092669;28;19912;-44
2022/01/03 08:03:57;;;;;;;;;;;10.40;99.90;;;;;;5092729;28;19912;-44
2022/01/03 08:06:22;;;;;;;;;;;10.40;99.90;;;;;;5093189;28;19931;-46
2022/01/03 08:08:48;;;;;;;;;;;10.40;99.90;;;;;;5092811;28;19912;-43
2022/01/03 08:11:13;;;;;;;;;;;10.40;99.90;;;;;;5075064;28;20320;-43
2022/01/03 08:13:39;;;;;;;;;;;10.50;99.90;;;;;;5092436;28;19913;-44
2022/01/03 08:16:04;;;;;;;;;;;10.50;99.90;;;;;;5092943;28;19912;-47
2022/01/03 08:18:32;;;;;;;;;;;10.50;99.90;;;;;;5091525;28;19912;-47
2022/01/03 08:20:57;;;;;;;;;;;10.60;99.90;;;;;;5084428;28;19921;-46
2022/01/03 08:23:23;;;;;;;;;;;10.60;99.90;;;;;;5075246;28;19908;-46
2022/01/03 08:25:48;;;;;;;;;;;10.60;99.90;;;;;;5086597;28;19919;-45
2022/01/03 08:28:14;;;;;;;;;;;10.70;99.90;;;;;;5092242;28;19927;-46
2022/01/03 08:30:40;;;;;;;;;;;10.60;99.90;;;;;;5092010;28;19920;-46
2022/01/03 08:33:06;;;;;;;;;;;10.70;99.90;;;;;;5093263;28;19915;-47
2022/01/03 08:35:32;;;;;;;;;;;10.70;99.90;;;;;;5093322;28;19912;-47
2022/01/03 08:37:58;;;;;;;;;;;10.80;99.90;;;;;;5092752;28;19915;-45
2022/01/03 08:40:24;;;;;;;;;;;10.80;99.90;;;;;;5093290;28;19914;-46
2022/01/03 08:42:51;;;;;;;;;;;10.80;99.90;;;;;;5092968;28;19908;-44
2022/01/03 08:45:17;;;;;;;;;;;10.90;99.90;;;;;;5092984;28;19908;-44
2022/01/03 08:47:43;;;;;;;;;;;10.90;99.90;;;;;;5093025;28;20315;-49
2022/01/03 08:50:09;;;;;;;;;;;11.00;99.90;;;;;;5093165;28;19908;-46
2022/01/03 08:52:35;;;;;;;;;;;11.00;99.90;;;;;;5092646;28;19999;-44
2022/01/03 08:55:00;;;;;;;;;;;11.00;99.90;;;;;;5095521;28;19939;-46
2022/01/03 08:57:26;;;;;;;;;;;11.00;99.90;;;;;;5096396;28;19954;-45
2022/01/03 08:59:51;;;;;;;;;;;11.00;99.90;;;;;;5077644;28;19923;-45
2022/01/03 09:02:17;;;;;;;;;;;11.10;99.90;;;;;;5091930;28;19919;-46
2022/01/03 09:04:43;;;;;;;;;;;11.10;99.90;;;;;;5081899;28;19962;-49
2022/01/03 09:07:09;;;;;;;;;;;11.10;99.90;;;;;;5093111;28;19943;-48
2022/01/03 09:09:35;;;;;;;;;;;11.10;99.90;;;;;;5077346;28;19913;-45
2022/01/03 09:12:01;;;;;;;;;;;11.20;99.90;;;;;;5074233;28;19919;-46
2022/01/03 09:14:27;;;;;;;;;;;11.20;99.90;;;;;;5082465;28;19944;-43
2022/01/03 09:16:53;;;;;;;;;;;11.20;99.90;;;;;;5086555;28;20002;-46
2022/01/03 09:19:18;;;;;;;;;;;11.20;99.90;;;;;;5084681;28;19953;-47
2022/01/03 09:21:44;;;;;;;;;;;11.20;99.90;;;;;;5096247;28;20274;-45
2022/01/03 09:29:53;;;;;;;;;;;11.30;99.90;;;;;;5075470;28;20290;-49
2022/01/03 09:32:19;;;;;;;;;;;11.30;99.90;;;;;;5076613;28;19919;-44
2022/01/03 09:34:44;;;;;;;;;;;11.40;99.90;;;;;;5081020;28;20321;-45
2022/01/03 09:37:10;;;;;;;;;;;11.30;99.90;;;;;;5075028;28;19981;-44
2022/01/03 09:39:35;;;;;;;;;;;11.40;99.90;;;;;;5088148;28;19931;-46
2022/01/03 09:42:05;;;;;;;;;;;11.40;99.90;;;;;;5095560;28;19946;-51
2022/01/03 09:44:32;;;;;;;;;;;11.40;99.90;;;;;;5083582;28;20277;-44
2022/01/03 09:47:02;;;;;;;;;;;11.40;99.90;;;;;;5076314;28;19924;-44
2022/01/03 09:49:31;;;;;;;;;;;11.40;99.90;;;;;;5065428;28;19955;-54
2022/01/03 09:51:59;;;;;;;;;;;11.40;99.90;;;;;;5058321;28;20003;-46
2022/01/03 09:54:24;;;;;;;;;;;11.50;99.90;;;;;;5077016;28;19947;-47
2022/01/03 09:56:50;;;;;;;;;;;11.50;99.90;;;;;;5076032;28;19948;-44
2022/01/03 09:59:16;;;;;;;;;;;11.60;99.90;;;;;;5076063;28;20246;-50
2022/01/03 10:01:42;;;;;;;;;;;11.60;99.90;;;;;;5084797;28;19939;-47
2022/01/03 10:04:09;;;;;;;;;;;11.60;99.90;;;;;;5093478;28;19915;-47
2022/01/03 10:06:36;;;;;;;;;;;11.60;99.90;;;;;;5077367;28;19921;-41
2022/01/03 10:09:02;;;;;;;;;;;11.70;99.90;;;;;;5075883;28;20366;-45
2022/01/03 10:11:27;;;;;;;;;;;11.70;99.90;;;;;;5075388;28;20005;-47
2022/01/03 10:13:53;;;;;;;;;;;11.80;99.90;;;;;;5076877;28;19931;-43
2022/01/03 10:16:18;;;;;;;;;;;11.70;99.90;;;;;;5074794;28;20203;-51
2022/01/03 10:18:47;;;;;;;;;;;11.80;99.90;;;;;;5086801;28;20337;-51
2022/01/03 10:21:31;;;;;;;;;;;11.80;99.90;;;;;;5089618;28;19912;-47
2022/01/03 10:23:57;;;;;;;;;;;11.80;99.90;;;;;;5077756;28;20304;-49
2022/01/03 10:26:23;;;;;;;;;;;11.90;99.90;;;;;;5084494;28;20364;-49
2022/01/03 10:28:51;;;;;;;;;;;12.00;99.90;;;;;;5089806;28;19919;-51
2022/01/03 10:31:22;;;;;;;;;;;12.00;99.90;;;;;;5075874;28;20003;-48
2022/01/03 10:33:48;;;;;;;;;;;12.10;99.90;;;;;;5088495;28;20305;-49
2022/01/03 10:36:33;;;;;;;;;;;12.10;99.90;;;;;;5078665;28;19912;-51
2022/01/03 10:39:10;;;;;;;;;;;12.00;99.90;;;;;;5073435;28;19908;-43
2022/01/03 10:41:36;;;;;;;;;;;12.10;99.90;;;;;;5078641;28;19912;-52
2022/01/03 10:44:01;;;;;;;;;;;12.00;99.90;;;;;;5079343;28;19923;-50
2022/01/03 10:46:31;;;;;;;;;;;12.00;99.90;;;;;;5074192;28;19916;-48
2022/01/03 10:49:06;;;;;;;;;;;11.90;99.90;;;;;;5075656;28;19912;-49
2022/01/03 10:51:32;;;;;;;;;;;11.80;99.90;;;;;;5094254;28;19912;-47
2022/01/03 10:53:57;;;;;;;;;;;11.80;99.90;;;;;;5082461;28;19912;-51
2022/01/03 10:56:28;;;;;;;;;;;11.90;99.90;;;;;;5082893;28;19912;-50
2022/01/03 10:58:54;;;;;;;;;;;11.90;99.90;;;;;;5094009;28;20353;-50
2022/01/03 11:01:23;;;;;;;;;;;11.90;99.90;;;;;;5082875;28;20269;-48
2022/01/03 11:03:49;;;;;;;;;;;11.90;99.90;;;;;;5060104;28;19912;-47
2022/01/03 11:06:46;;;;;;;;;;;11.90;99.90;;;;;;5093691;28;19915;-47
2022/01/03 11:11:58;;;;;;;;;;;11.90;99.90;;;;;;5074481;28;20259;-45
2022/01/03 11:14:33;;;;;;;;;;;12.00;99.90;;;;;;5073607;28;19948;-45
2022/01/03 11:17:18;;;;;;;;;;;12.00;99.90;;;;;;5073998;28;19919;-48
2022/01/03 11:19:44;;;;;;;;;;;11.90;99.90;;;;;;5075056;28;20234;-46
2022/01/03 11:22:09;;;;;;;;;;;11.90;99.90;;;;;;5073505;28;19931;-47
2022/01/03 11:24:50;;;;;;;;;;;11.90;99.90;;;;;;5080977;28;19912;-49
2022/01/03 11:27:15;;;;;;;;;;;12.00;99.90;;;;;;5076060;28;20106;-48
2022/01/03 11:29:42;;;;;;;;;;;12.00;99.90;;;;;;5075977;28;20029;-45
2022/01/03 11:32:08;;;;;;;;;;;12.00;99.90;;;;;;5090402;28;19908;-44
2022/01/03 11:34:33;;;;;;;;;;;12.00;99.90;;;;;;5093382;28;20265;-49
2022/01/03 11:37:00;;;;;;;;;;;12.10;99.90;;;;;;5093404;28;19915;-47
2022/01/03 11:39:28;;;;;;;;;;;12.20;99.90;;;;;;5085454;28;19924;-46
2022/01/03 11:41:53;;;;;;;;;;;12.20;99.90;;;;;;5072837;28;19999;-49
2022/01/03 11:44:19;;;;;;;;;;;12.20;99.90;;;;;;5089058;28;20385;-46
2022/01/03 11:46:45;;;;;;;;;;;12.30;99.90;;;;;;5093229;28;19916;-46
2022/01/03 11:49:11;;;;;;;;;;;12.20;99.90;;;;;;5077629;28;19947;-46
2022/01/03 11:51:38;;;;;;;;;;;12.10;99.90;;;;;;5073637;28;19951;-47
2022/01/03 11:54:04;;;;;;;;;;;12.00;99.90;;;;;;5078527;28;19916;-46
2022/01/03 11:56:32;;;;;;;;;;;12.00;99.90;;;;;;5072869;28;19913;-47
2022/01/03 12:04:34;;;;;;;;;;;11.90;99.90;;;;;;5074858;28;19959;-47
2022/01/03 12:07:04;;;;;;;;;;;12.00;99.90;;;;;;5074982;28;20366;-48
2022/01/03 12:09:30;;;;;;;;;;;12.00;99.90;;;;;;5072606;28;19931;-48
2022/01/03 12:11:56;;;;;;;;;;;12.00;99.90;;;;;;5075509;28;19916;-45
2022/01/03 12:14:37;;;;;;;;;;;12.00;99.90;;;;;;5091947;28;20366;-47
2022/01/03 12:17:04;;;;;;;;;;;12.10;99.90;;;;;;5091000;28;20416;-45
2022/01/03 12:19:30;;;;;;;;;;;12.10;99.90;;;;;;5075253;28;19912;-45
2022/01/03 12:21:59;;;;;;;;;;;12.20;99.90;;;;;;5080081;28;19981;-50
2022/01/03 12:24:28;;;;;;;;;;;12.10;99.90;;;;;;5090668;28;19912;-46
2022/01/03 12:27:12;;;;;;;;;;;12.10;99.90;;;;;;5091268;28;19916;-45
2022/01/03 12:29:49;;;;;;;;;;;12.10;99.90;;;;;;5091664;28;19959;-46
2022/01/03 12:32:15;;;;;;;;;;;12.00;99.90;;;;;;5091359;28;19919;-44
2022/01/03 12:34:41;;;;;;;;;;;12.00;99.90;;;;;;5076587;28;19908;-46
2022/01/03 12:37:13;;;;;;;;;;;12.00;99.90;;;;;;5079617;28;19919;-45
2022/01/03 12:39:59;;;;;;;;;;;11.90;99.90;;;;;;5092505;28;19934;-46
2022/01/03 12:42:43;;;;;;;;;;;11.90;99.90;;;;;;5079022;28;19963;-46
2022/01/03 12:45:08;;;;;;;;;;;11.90;99.90;;;;;;5094681;28;19919;-48
2022/01/03 12:47:37;;;;;;;;;;;11.80;99.90;;;;;;5091775;28;19919;-48
2022/01/03 12:50:20;;;;;;;;;;;11.80;99.90;;;;;;5076097;28;19916;-47
2022/01/03 12:52:46;;;;;;;;;;;11.70;99.90;;;;;;5093364;28;19962;-44
2022/01/03 12:55:31;;;;;;;;;;;11.70;99.90;;;;;;5077473;28;19955;-48
2022/01/03 12:57:57;;;;;;;;;;;11.70;99.90;;;;;;5095461;28;19919;-50
2022/01/03 13:00:49;;;;;;;;;;;11.70;99.90;;;;;;5092462;28;19912;-48
2022/01/03 13:03:32;;;;;;;;;;;11.70;99.90;;;;;;5066863;28;20323;-54
2022/01/03 13:06:07;;;;;;;;;;;11.70;99.90;;;;;;5077571;28;19908;-53
2022/01/03 13:08:33;;;;;;;;;;;11.70;99.90;;;;;;5095394;28;20350;-50
2022/01/03 13:10:59;;;;;;;;;;;11.70;99.90;;;;;;5095879;28;19952;-55
2022/01/03 13:13:27;;;;;;;;;;;11.60;99.90;;;;;;5095832;28;19908;-49
2022/01/03 13:15:53;;;;;;;;;;;11.60;99.90;;;;;;5077240;28;20310;-46
2022/01/03 13:18:19;;;;;;;;;;;11.60;99.90;;;;;;5093369;28;19938;-47
2022/01/03 13:20:54;;;;;;;;;;;11.60;99.90;;;;;;5074900;28;19908;-46
2022/01/03 13:23:20;;;;;;;;;;;11.50;99.90;;;;;;5064699;28;19977;-55
2022/01/03 13:25:45;;;;;;;;;;;11.60;99.90;;;;;;5077805;28;19908;-44
2022/01/03 13:28:11;;;;;;;;;;;11.60;99.90;;;;;;5095251;28;19924;-49
2022/01/03 13:30:37;;;;;;;;;;;11.50;99.90;;;;;;5095523;28;19920;-44
2022/01/03 13:33:02;;;;;;;;;;;11.50;99.90;;;;;;5094363;28;19930;-48
2022/01/03 13:35:28;;;;;;;;;;;11.50;99.90;;;;;;5094882;28;19908;-49
2022/01/03 13:37:53;;;;;;;;;;;11.50;99.90;;;;;;5082688;28;20350;-45
2022/01/03 13:40:22;;;;;;;;;;;11.60;99.90;;;;;;5075065;28;19913;-49
2022/01/03 13:43:00;;;;;;;;;;;11.50;99.90;;;;;;5077391;28;19919;-46
2022/01/03 13:50:42;;;;;;;;;;;11.50;99.90;;;;;;5095136;28;20382;-48
2022/01/03 13:53:09;;;;;;;;;;;11.60;99.90;;;;;;5095406;28;20311;-43
2022/01/03 13:55:34;;;;;;;;;;;11.60;99.90;;;;;;5095187;28;19912;-45
2022/01/03 13:58:06;;;;;;;;;;;11.60;99.90;;;;;;5093174;28;19934;-42
2022/01/03 14:00:33;;;;;;;;;;;11.50;99.90;;;;;;5094059;28;20007;-47
2022/01/03 14:02:59;;;;;;;;;;;11.50;99.90;;;;;;5094169;28;20023;-46
2022/01/03 14:05:25;;;;;;;;;;;11.50;99.90;;;;;;5076415;28;19919;-46
2022/01/03 14:07:51;;;;;;;;;;;11.50;99.90;;;;;;5095049;28;19967;-46
2022/01/03 14:10:17;;;;;;;;;;;11.60;99.90;;;;;;5091213;28;19912;-46
2022/01/03 14:12:48;;;;;;;;;;;11.50;99.90;;;;;;5094480;28;19912;-51
2022/01/03 14:15:15;;;;;;;;;;;11.40;99.90;;;;;;5094650;28;19951;-52
2022/01/03 14:17:50;;;;;;;;;;;11.40;99.90;;;;;;5094747;28;19912;-47
2022/01/03 14:20:17;;;;;;;;;;;11.40;99.90;;;;;;5076423;28;19954;-45
2022/01/03 14:22:43;;;;;;;;;;;11.50;99.90;;;;;;5094461;28;20010;-53
2022/01/03 14:25:09;;;;;;;;;;;11.40;99.90;;;;;;5094115;28;20337;-49
2022/01/03 14:27:37;;;;;;;;;;;11.40;99.90;;;;;;5094750;28;20285;-49
2022/01/03 14:30:15;;;;;;;;;;;11.40;99.90;;;;;;5094061;28;19968;-48
2022/01/03 14:32:41;;;;;;;;;;;11.40;99.90;;;;;;5077041;28;19912;-43
2022/01/03 14:35:07;;;;;;;;;;;11.40;99.90;;;;;;5090787;28;19953;-46
2022/01/03 14:37:33;;;;;;;;;;;11.40;99.90;;;;;;5093516;28;19995;-52
2022/01/03 14:39:59;;;;;;;;;;;11.50;99.90;;;;;;5094094;28;19919;-52
2022/01/03 14:42:25;;;;;;;;;;;11.40;99.90;;;;;;5094280;28;19908;-52
2022/01/03 14:44:51;;;;;;;;;;;11.30;99.90;;;;;;5094511;28;20200;-47